sensor_id;sensor_type;location;lat;lon;timestamp;pressure;altitude;pressure_sealevel;temperature;humidity
20612;BME280;10465;42.686;23.364;2023-02-21T00:00:52;95368.91;;;8.06;55.51
20612;BME280;10465;42.686;23.364;2023-02-21T00:03:36;95367.06;;;8.07;55.91
20612;BME280;10465;42.686;23.364;2023-02-21T00:06:20;95362.09;;;8.00;55.90
20612;BME280;10465;42.686;23.364;2023-02-21T00:09:04;95374.63;;;8.13;56.08
20612;BME280;10465;42.686;23.364;2023-02-21T00:11:48;95375.38;;;8.19;55.78
20612;BME280;10465;42.686;23.364;2023-02-21T00:14:32;95361.50;;;8.08;56.37
20612;BME280;10465;42.686;23.364;2023-02-21T00:17:16;95377.84;;;8.05;56.19
20612;BME280;10465;42.686;23.364;2023-02-21T00:20:00;95369.75;;;7.97;56.39
20612;BME280;10465;42.686;23.364;2023-02-21T00:22:45;95376.56;;;8.03;56.38
20612;BME280;10465;42.686;23.364;2023-02-21T00:25:29;95375.66;;;7.83;57.07
20612;BME280;10465;42.686;23.364;2023-02-21T00:28:13;95369.66;;;7.73;57.26
20612;BME280;10465;42.686;23.364;2023-02-21T00:30:57;95364.94;;;7.69;57.40
20612;BME280;10465;42.686;23.364;2023-02-21T00:33:40;95342.31;;;7.63;57.49
20612;BME280;10465;42.686;23.364;2023-02-21T00:36:24;95358.03;;;7.79;57.39
20612;BME280;10465;42.686;23.364;2023-02-21T00:39:08;95351.44;;;7.76;57.09
20612;BME280;10465;42.686;23.364;2023-02-21T00:41:52;95358.22;;;7.87;56.72
20612;BME280;10465;42.686;23.364;2023-02-21T00:44:36;95350.81;;;7.89;56.72
20612;BME280;10465;42.686;23.364;2023-02-21T00:47:20;95354.75;;;7.92;56.67
20612;BME280;10465;42.686;23.364;2023-02-21T00:50:05;95338.53;;;7.80;56.42
20612;BME280;10465;42.686;23.364;2023-02-21T00:52:49;95342.38;;;7.92;56.38
20612;BME280;10465;42.686;23.364;2023-02-21T00:55:33;95347.34;;;7.99;57.04
20612;BME280;10465;42.686;23.364;2023-02-21T00:58:20;95312.41;;;7.83;56.95
20612;BME280;10465;42.686;23.364;2023-02-21T01:01:04;95332.78;;;8.02;56.23
20612;BME280;10465;42.686;23.364;2023-02-21T01:03:48;95316.84;;;7.88;56.57
20612;BME280;10465;42.686;23.364;2023-02-21T01:06:32;95302.88;;;7.87;56.50
20612;BME280;10465;42.686;23.364;2023-02-21T01:09:16;95286.75;;;7.60;56.90
20612;BME280;10465;42.686;23.364;2023-02-21T01:12:00;95315.81;;;7.84;57.09
20612;BME280;10465;42.686;23.364;2023-02-21T01:14:44;95314.56;;;7.76;57.46
20612;BME280;10465;42.686;23.364;2023-02-21T01:17:28;95304.38;;;7.64;57.61
20612;BME280;10465;42.686;23.364;2023-02-21T01:20:12;95250.06;;;7.34;57.70
20612;BME280;10465;42.686;23.364;2023-02-21T01:22:56;95283.81;;;7.66;57.22
20612;BME280;10465;42.686;23.364;2023-02-21T01:25:40;95282.22;;;7.65;57.35
20612;BME280;10465;42.686;23.364;2023-02-21T01:28:24;95281.88;;;7.77;57.34
20612;BME280;10465;42.686;23.364;2023-02-21T01:31:08;95292.56;;;7.91;56.88
20612;BME280;10465;42.686;23.364;2023-02-21T01:33:52;95267.66;;;7.78;56.50
20612;BME280;10465;42.686;23.364;2023-02-21T01:36:40;95274.25;;;7.76;56.56
20612;BME280;10465;42.686;23.364;2023-02-21T01:39:24;95290.88;;;7.71;57.07
20612;BME280;10465;42.686;23.364;2023-02-21T01:42:09;95289.09;;;7.61;58.17
20612;BME280;10465;42.686;23.364;2023-02-21T01:48:06;95287.69;;;7.40;58.47
20612;BME280;10465;42.686;23.364;2023-02-21T01:50:52;95273.06;;;7.18;58.87
20612;BME280;10465;42.686;23.364;2023-02-21T01:53:37;95269.41;;;7.14;59.27
20612;BME280;10465;42.686;23.364;2023-02-21T01:56:21;95267.78;;;7.24;58.88
20612;BME280;10465;42.686;23.364;2023-02-21T01:59:05;95266.75;;;7.19;59.19
20612;BME280;10465;42.686;23.364;2023-02-21T02:01:53;95261.19;;;7.26;59.34
20612;BME280;10465;42.686;23.364;2023-02-21T02:04:39;95214.72;;;7.06;58.99
20612;BME280;10465;42.686;23.364;2023-02-21T02:07:24;95252.41;;;7.36;58.71
20612;BME280;10465;42.686;23.364;2023-02-21T02:10:09;95235.03;;;7.35;58.72
20612;BME280;10465;42.686;23.364;2023-02-21T02:15:56;95251.72;;;7.59;57.62
20612;BME280;10465;42.686;23.364;2023-02-21T02:35:21;95237.63;;;8.03;56.84
20612;BME280;10465;42.686;23.364;2023-02-21T02:38:01;95220.78;;;7.99;57.23
20612;BME280;10465;42.686;23.364;2023-02-21T02:40:54;95238.53;;;8.17;56.89
20612;BME280;10465;42.686;23.364;2023-02-21T02:46:29;95214.97;;;8.02;55.59
20612;BME280;10465;42.686;23.364;2023-02-21T02:49:06;95226.94;;;8.18;55.97
20612;BME280;10465;42.686;23.364;2023-02-21T02:51:34;95224.50;;;8.22;56.50
20612;BME280;10465;42.686;23.364;2023-02-21T02:54:00;95214.00;;;8.17;56.34
20612;BME280;10465;42.686;23.364;2023-02-21T02:56:25;95231.34;;;8.23;55.99
20612;BME280;10465;42.686;23.364;2023-02-21T02:59:05;95224.56;;;8.17;55.82
20612;BME280;10465;42.686;23.364;2023-02-21T03:09:33;95232.06;;;8.05;57.04
20612;BME280;10465;42.686;23.364;2023-02-21T03:17:23;95210.63;;;7.87;56.85
20612;BME280;10465;42.686;23.364;2023-02-21T03:19:52;95198.72;;;7.66;56.82
20612;BME280;10465;42.686;23.364;2023-02-21T03:22:23;95226.16;;;7.89;56.71
20612;BME280;10465;42.686;23.364;2023-02-21T03:24:51;95226.81;;;7.76;57.04
20612;BME280;10465;42.686;23.364;2023-02-21T03:27:19;95224.47;;;7.74;57.37
20612;BME280;10465;42.686;23.364;2023-02-21T03:29:46;95228.41;;;7.42;58.26
20612;BME280;10465;42.686;23.364;2023-02-21T03:32:16;95215.66;;;7.55;58.14
20612;BME280;10465;42.686;23.364;2023-02-21T03:34:44;95200.50;;;7.41;58.33
20612;BME280;10465;42.686;23.364;2023-02-21T03:37:19;95226.69;;;7.57;58.05
20612;BME280;10465;42.686;23.364;2023-02-21T03:39:45;95204.38;;;7.49;57.83
20612;BME280;10465;42.686;23.364;2023-02-21T03:42:11;95206.69;;;7.56;57.57
20612;BME280;10465;42.686;23.364;2023-02-21T03:44:36;95223.16;;;7.72;58.04
20612;BME280;10465;42.686;23.364;2023-02-21T03:47:02;95206.28;;;7.73;57.11
20612;BME280;10465;42.686;23.364;2023-02-21T03:49:27;95208.91;;;7.73;57.02
20612;BME280;10465;42.686;23.364;2023-02-21T03:51:52;95222.84;;;7.78;57.47
20612;BME280;10465;42.686;23.364;2023-02-21T03:54:18;95233.38;;;7.78;57.19
20612;BME280;10465;42.686;23.364;2023-02-21T03:56:43;95195.25;;;7.65;57.65
20612;BME280;10465;42.686;23.364;2023-02-21T03:59:09;95234.53;;;7.96;57.35
20612;BME280;10465;42.686;23.364;2023-02-21T04:01:34;95225.84;;;7.96;57.23
20612;BME280;10465;42.686;23.364;2023-02-21T04:03:59;95238.84;;;7.87;56.90
20612;BME280;10465;42.686;23.364;2023-02-21T04:06:25;95218.84;;;7.81;56.88
20612;BME280;10465;42.686;23.364;2023-02-21T04:08:50;95226.44;;;7.87;56.89
20612;BME280;10465;42.686;23.364;2023-02-21T04:11:19;95245.19;;;7.86;56.62
20612;BME280;10465;42.686;23.364;2023-02-21T04:13:44;95237.81;;;7.83;56.78
20612;BME280;10465;42.686;23.364;2023-02-21T04:16:10;95241.78;;;7.80;56.64
20612;BME280;10465;42.686;23.364;2023-02-21T04:18:35;95222.44;;;7.66;56.85
20612;BME280;10465;42.686;23.364;2023-02-21T04:21:01;95252.44;;;7.70;56.87
20612;BME280;10465;42.686;23.364;2023-02-21T04:23:26;95237.66;;;7.69;56.97
20612;BME280;10465;42.686;23.364;2023-02-21T04:25:51;95257.22;;;7.92;56.57
20612;BME280;10465;42.686;23.364;2023-02-21T04:28:17;95242.72;;;7.95;56.80
20612;BME280;10465;42.686;23.364;2023-02-21T04:30:42;95256.34;;;8.02;56.83
20612;BME280;10465;42.686;23.364;2023-02-21T04:33:08;95252.66;;;8.03;56.35
20612;BME280;10465;42.686;23.364;2023-02-21T04:35:33;95250.63;;;7.95;56.45
20612;BME280;10465;42.686;23.364;2023-02-21T04:37:59;95265.31;;;8.01;56.44
20612;BME280;10465;42.686;23.364;2023-02-21T04:40:24;95265.59;;;7.99;56.05
20612;BME280;10465;42.686;23.364;2023-02-21T04:42:49;95269.81;;;8.00;55.72
20612;BME280;10465;42.686;23.364;2023-02-21T04:45:15;95234.75;;;8.00;55.13
20612;BME280;10465;42.686;23.364;2023-02-21T04:47:40;95240.50;;;8.07;54.86
20612;BME280;10465;42.686;23.364;2023-02-21T04:50:06;95257.72;;;8.23;54.59
20612;BME280;10465;42.686;23.364;2023-02-21T04:52:31;95247.41;;;8.27;54.60
20612;BME280;10465;42.686;23.364;2023-02-21T04:54:57;95240.53;;;8.26;54.54
20612;BME280;10465;42.686;23.364;2023-02-21T04:57:23;95235.03;;;8.22;54.58
20612;BME280;10465;42.686;23.364;2023-02-21T04:59:48;95224.31;;;8.13;54.57
20612;BME280;10465;42.686;23.364;2023-02-21T05:02:20;95226.69;;;8.15;54.67
20612;BME280;10465;42.686;23.364;2023-02-21T05:04:45;95227.75;;;8.14;55.24
20612;BME280;10465;42.686;23.364;2023-02-21T05:07:11;95217.44;;;8.17;55.31
20612;BME280;10465;42.686;23.364;2023-02-21T05:09:36;95223.00;;;8.16;55.02
20612;BME280;10465;42.686;23.364;2023-02-21T05:12:02;95239.03;;;8.20;55.36
20612;BME280;10465;42.686;23.364;2023-02-21T05:14:27;95217.03;;;8.05;55.72
20612;BME280;10465;42.686;23.364;2023-02-21T05:16:53;95224.28;;;7.95;56.26
20612;BME280;10465;42.686;23.364;2023-02-21T05:19:19;95230.03;;;7.97;56.75
20612;BME280;10465;42.686;23.364;2023-02-21T05:21:55;95216.84;;;7.97;56.65
20612;BME280;10465;42.686;23.364;2023-02-21T05:24:22;95211.13;;;7.89;57.03
20612;BME280;10465;42.686;23.364;2023-02-21T05:26:47;95235.69;;;7.85;56.83
20612;BME280;10465;42.686;23.364;2023-02-21T05:29:13;95228.38;;;7.77;57.58
20612;BME280;10465;42.686;23.364;2023-02-21T05:31:39;95221.59;;;7.71;57.08
20612;BME280;10465;42.686;23.364;2023-02-21T05:34:04;95205.31;;;7.63;57.40
20612;BME280;10465;42.686;23.364;2023-02-21T05:36:30;95234.53;;;7.67;57.13
20612;BME280;10465;42.686;23.364;2023-02-21T05:38:55;95224.59;;;7.59;57.50
20612;BME280;10465;42.686;23.364;2023-02-21T05:41:21;95242.31;;;7.48;57.40
20612;BME280;10465;42.686;23.364;2023-02-21T05:43:48;95224.47;;;7.40;57.63
20612;BME280;10465;42.686;23.364;2023-02-21T05:46:19;95235.97;;;7.49;58.13
20612;BME280;10465;42.686;23.364;2023-02-21T05:48:45;95228.91;;;7.44;58.10
20612;BME280;10465;42.686;23.364;2023-02-21T05:51:10;95241.47;;;7.53;58.64
20612;BME280;10465;42.686;23.364;2023-02-21T05:53:36;95244.94;;;7.48;57.99
20612;BME280;10465;42.686;23.364;2023-02-21T05:56:01;95253.47;;;7.35;58.90
20612;BME280;10465;42.686;23.364;2023-02-21T05:58:27;95243.69;;;7.40;58.79
20612;BME280;10465;42.686;23.364;2023-02-21T06:00:53;95245.63;;;7.30;58.21
20612;BME280;10465;42.686;23.364;2023-02-21T06:03:18;95238.28;;;7.27;58.28
20612;BME280;10465;42.686;23.364;2023-02-21T06:05:44;95268.66;;;7.48;58.18
20612;BME280;10465;42.686;23.364;2023-02-21T06:08:09;95267.56;;;7.54;57.62
20612;BME280;10465;42.686;23.364;2023-02-21T06:10:35;95265.56;;;7.75;57.61
20612;BME280;10465;42.686;23.364;2023-02-21T06:13:00;95260.59;;;7.98;57.48
20612;BME280;10465;42.686;23.364;2023-02-21T06:15:26;95259.59;;;8.23;56.53
20612;BME280;10465;42.686;23.364;2023-02-21T06:17:52;95256.53;;;8.39;56.31
20612;BME280;10465;42.686;23.364;2023-02-21T06:20:17;95260.03;;;8.54;55.51
20612;BME280;10465;42.686;23.364;2023-02-21T06:22:43;95250.09;;;8.70;54.85
20612;BME280;10465;42.686;23.364;2023-02-21T06:25:09;95237.34;;;8.77;53.74
20612;BME280;10465;42.686;23.364;2023-02-21T06:27:34;95249.13;;;9.03;53.30
20612;BME280;10465;42.686;23.364;2023-02-21T06:30:01;95259.50;;;9.19;52.62
20612;BME280;10465;42.686;23.364;2023-02-21T06:32:26;95258.56;;;9.28;52.32
20612;BME280;10465;42.686;23.364;2023-02-21T06:34:52;95266.19;;;9.49;51.12
20612;BME280;10465;42.686;23.364;2023-02-21T06:37:18;95262.69;;;9.53;51.62
20612;BME280;10465;42.686;23.364;2023-02-21T06:39:44;95264.81;;;9.70;50.18
20612;BME280;10465;42.686;23.364;2023-02-21T06:42:13;95275.91;;;9.86;49.89
20612;BME280;10465;42.686;23.364;2023-02-21T06:44:47;95272.41;;;9.90;50.09
20612;BME280;10465;42.686;23.364;2023-02-21T06:47:13;95275.78;;;10.10;49.77
20612;BME280;10465;42.686;23.364;2023-02-21T06:49:39;95261.97;;;10.13;49.42
20612;BME280;10465;42.686;23.364;2023-02-21T06:52:05;95258.38;;;10.23;48.77
20612;BME280;10465;42.686;23.364;2023-02-21T06:54:30;95259.00;;;10.33;48.09
20612;BME280;10465;42.686;23.364;2023-02-21T06:56:56;95248.59;;;10.37;47.48
20612;BME280;10465;42.686;23.364;2023-02-21T06:59:22;95259.56;;;10.44;47.45
20612;BME280;10465;42.686;23.364;2023-02-21T07:01:47;95270.56;;;10.51;47.82
20612;BME280;10465;42.686;23.364;2023-02-21T07:04:12;95276.16;;;10.50;47.76
20612;BME280;10465;42.686;23.364;2023-02-21T07:06:38;95260.47;;;10.53;47.92
20612;BME280;10465;42.686;23.364;2023-02-21T07:09:04;95271.25;;;10.71;47.80
20612;BME280;10465;42.686;23.364;2023-02-21T07:11:31;95272.78;;;10.85;47.04
20612;BME280;10465;42.686;23.364;2023-02-21T07:13:57;95271.81;;;10.95;46.77
20612;BME280;10465;42.686;23.364;2023-02-21T07:16:24;95259.56;;;10.99;46.68
20612;BME280;10465;42.686;23.364;2023-02-21T07:18:51;95267.69;;;11.03;46.39
20612;BME280;10465;42.686;23.364;2023-02-21T07:21:18;95264.03;;;11.12;46.39
20612;BME280;10465;42.686;23.364;2023-02-21T07:23:46;95275.28;;;11.32;46.11
20612;BME280;10465;42.686;23.364;2023-02-21T07:26:12;95239.00;;;11.19;46.59
20612;BME280;10465;42.686;23.364;2023-02-21T07:28:38;95252.13;;;11.24;46.36
20612;BME280;10465;42.686;23.364;2023-02-21T07:31:04;95244.13;;;11.01;46.54
20612;BME280;10465;42.686;23.364;2023-02-21T07:33:29;95259.00;;;11.25;46.40
20612;BME280;10465;42.686;23.364;2023-02-21T07:35:55;95236.53;;;11.22;46.42
20612;BME280;10465;42.686;23.364;2023-02-21T07:38:25;95244.75;;;11.57;46.06
20612;BME280;10465;42.686;23.364;2023-02-21T07:40:55;95243.16;;;11.78;45.48
20612;BME280;10465;42.686;23.364;2023-02-21T07:43:21;95241.09;;;11.89;44.61
20612;BME280;10465;42.686;23.364;2023-02-21T07:45:46;95225.94;;;11.90;44.26
20612;BME280;10465;42.686;23.364;2023-02-21T07:48:12;95233.66;;;12.00;44.10
20612;BME280;10465;42.686;23.364;2023-02-21T07:50:41;95213.56;;;12.07;44.22
20612;BME280;10465;42.686;23.364;2023-02-21T07:53:06;95214.75;;;12.24;43.96
20612;BME280;10465;42.686;23.364;2023-02-21T07:55:32;95230.56;;;12.46;43.49
20612;BME280;10465;42.686;23.364;2023-02-21T07:57:57;95232.94;;;12.48;42.66
20612;BME280;10465;42.686;23.364;2023-02-21T08:00:24;95230.75;;;12.50;43.33
20612;BME280;10465;42.686;23.364;2023-02-21T08:02:50;95213.88;;;12.46;44.12
20612;BME280;10465;42.686;23.364;2023-02-21T08:05:17;95229.22;;;12.57;43.74
20612;BME280;10465;42.686;23.364;2023-02-21T08:07:43;95232.50;;;12.63;43.89
20612;BME280;10465;42.686;23.364;2023-02-21T08:10:09;95213.13;;;12.62;43.83
20612;BME280;10465;42.686;23.364;2023-02-21T08:12:35;95221.56;;;12.56;43.27
20612;BME280;10465;42.686;23.364;2023-02-21T08:15:00;95220.13;;;12.50;43.59
20612;BME280;10465;42.686;23.364;2023-02-21T08:17:25;95224.06;;;12.52;43.92
20612;BME280;10465;42.686;23.364;2023-02-21T08:19:51;95225.63;;;12.62;43.92
20612;BME280;10465;42.686;23.364;2023-02-21T08:22:17;95215.50;;;12.64;43.13
20612;BME280;10465;42.686;23.364;2023-02-21T08:24:42;95220.81;;;12.64;43.39
20612;BME280;10465;42.686;23.364;2023-02-21T08:27:08;95195.91;;;12.51;43.83
20612;BME280;10465;42.686;23.364;2023-02-21T08:29:33;95220.81;;;12.64;43.34
20612;BME280;10465;42.686;23.364;2023-02-21T08:31:59;95221.25;;;12.57;43.25
20612;BME280;10465;42.686;23.364;2023-02-21T08:34:25;95206.25;;;12.53;43.21
20612;BME280;10465;42.686;23.364;2023-02-21T08:36:53;95215.59;;;12.50;43.14
20612;BME280;10465;42.686;23.364;2023-02-21T08:39:19;95201.09;;;12.48;42.92
20612;BME280;10465;42.686;23.364;2023-02-21T08:41:45;95201.88;;;12.57;43.01
20612;BME280;10465;42.686;23.364;2023-02-21T08:44:14;95205.16;;;12.62;43.10
20612;BME280;10465;42.686;23.364;2023-02-21T08:46:45;95199.84;;;12.62;43.07
20612;BME280;10465;42.686;23.364;2023-02-21T08:49:11;95198.13;;;12.58;43.02
20612;BME280;10465;42.686;23.364;2023-02-21T08:51:36;95207.56;;;12.81;43.35
20612;BME280;10465;42.686;23.364;2023-02-21T08:54:02;95203.66;;;12.96;42.76
20612;BME280;10465;42.686;23.364;2023-02-21T08:56:28;95209.28;;;13.12;42.39
20612;BME280;10465;42.686;23.364;2023-02-21T08:58:55;95204.50;;;13.23;42.07
20612;BME280;10465;42.686;23.364;2023-02-21T09:01:21;95193.25;;;13.26;41.86
20612;BME280;10465;42.686;23.364;2023-02-21T09:03:48;95203.25;;;13.38;41.58
20612;BME280;10465;42.686;23.364;2023-02-21T09:06:14;95188.53;;;13.31;42.02
20612;BME280;10465;42.686;23.364;2023-02-21T09:08:39;95192.09;;;13.53;41.69
20612;BME280;10465;42.686;23.364;2023-02-21T09:11:07;95191.63;;;13.68;41.52
20612;BME280;10465;42.686;23.364;2023-02-21T09:13:33;95179.72;;;13.74;41.21
20612;BME280;10465;42.686;23.364;2023-02-21T09:16:00;95179.06;;;13.86;41.06
20612;BME280;10465;42.686;23.364;2023-02-21T09:18:27;95176.06;;;13.96;40.84
20612;BME280;10465;42.686;23.364;2023-02-21T09:20:54;95174.25;;;14.18;41.08
20612;BME280;10465;42.686;23.364;2023-02-21T09:23:22;95176.06;;;14.73;39.84
20612;BME280;10465;42.686;23.364;2023-02-21T09:25:48;95179.25;;;15.29;38.80
20612;BME280;10465;42.686;23.364;2023-02-21T09:28:14;95173.38;;;15.56;37.53
20612;BME280;10465;42.686;23.364;2023-02-21T09:30:40;95181.78;;;15.79;37.47
20612;BME280;10465;42.686;23.364;2023-02-21T09:33:06;95163.50;;;16.02;36.55
20612;BME280;10465;42.686;23.364;2023-02-21T09:35:31;95166.84;;;16.24;36.01
20612;BME280;10465;42.686;23.364;2023-02-21T09:37:57;95155.06;;;16.13;35.78
20612;BME280;10465;42.686;23.364;2023-02-21T09:40:40;95161.97;;;16.26;35.83
20612;BME280;10465;42.686;23.364;2023-02-21T09:43:13;95144.81;;;16.39;35.43
20612;BME280;10465;42.686;23.364;2023-02-21T09:45:40;95142.81;;;16.24;35.44
20612;BME280;10465;42.686;23.364;2023-02-21T09:48:11;95145.28;;;16.29;36.09
20612;BME280;10465;42.686;23.364;2023-02-21T09:50:47;95146.84;;;16.42;35.81
20612;BME280;10465;42.686;23.364;2023-02-21T09:53:19;95145.47;;;16.73;34.51
20612;BME280;10465;42.686;23.364;2023-02-21T09:55:47;95142.13;;;16.76;34.78
20612;BME280;10465;42.686;23.364;2023-02-21T09:58:17;95141.91;;;16.81;33.97
20612;BME280;10465;42.686;23.364;2023-02-21T10:00:43;95126.22;;;16.79;34.02
20612;BME280;10465;42.686;23.364;2023-02-21T10:03:38;95139.44;;;16.88;34.23
20612;BME280;10465;42.686;23.364;2023-02-21T10:06:18;95130.06;;;17.35;33.84
20612;BME280;10465;42.686;23.364;2023-02-21T10:09:12;95105.38;;;17.85;31.70
20612;BME280;10465;42.686;23.364;2023-02-21T10:12:16;95116.47;;;18.50;31.42
20612;BME280;10465;42.686;23.364;2023-02-21T10:20:21;95106.78;;;18.97;30.61
20612;BME280;10465;42.686;23.364;2023-02-21T10:22:51;95084.13;;;18.94;30.37
20612;BME280;10465;42.686;23.364;2023-02-21T10:25:26;95088.28;;;19.11;30.24
20612;BME280;10465;42.686;23.364;2023-02-21T10:27:53;95089.66;;;19.44;29.64
20612;BME280;10465;42.686;23.364;2023-02-21T10:30:26;95084.06;;;19.52;29.40
20612;BME280;10465;42.686;23.364;2023-02-21T10:32:54;95093.09;;;19.83;28.92
20612;BME280;10465;42.686;23.364;2023-02-21T10:35:19;95076.22;;;20.09;28.77
20612;BME280;10465;42.686;23.364;2023-02-21T10:37:56;95083.75;;;20.23;28.83
20612;BME280;10465;42.686;23.364;2023-02-21T10:43:02;95064.53;;;20.47;28.18
20612;BME280;10465;42.686;23.364;2023-02-21T10:45:34;95061.97;;;20.55;28.06
20612;BME280;10465;42.686;23.364;2023-02-21T10:48:06;95048.81;;;20.49;27.99
20612;BME280;10465;42.686;23.364;2023-02-21T10:50:37;95053.56;;;20.60;27.54
20612;BME280;10465;42.686;23.364;2023-02-21T10:53:04;95041.03;;;20.71;28.36
20612;BME280;10465;42.686;23.364;2023-02-21T10:55:30;95034.13;;;21.04;25.56
20612;BME280;10465;42.686;23.364;2023-02-21T10:57:56;95041.09;;;21.42;24.22
20612;BME280;10465;42.686;23.364;2023-02-21T11:02:56;95032.44;;;21.63;21.76
20612;BME280;10465;42.686;23.364;2023-02-21T11:05:27;95029.34;;;21.61;21.60
20612;BME280;10465;42.686;23.364;2023-02-21T11:10:32;95012.28;;;21.90;21.52
20612;BME280;10465;42.686;23.364;2023-02-21T11:13:16;95008.34;;;22.29;21.19
20612;BME280;10465;42.686;23.364;2023-02-21T11:15:43;95008.88;;;22.59;21.28
20612;BME280;10465;42.686;23.364;2023-02-21T11:18:23;94993.56;;;22.81;20.93
20612;BME280;10465;42.686;23.364;2023-02-21T11:20:50;95000.09;;;22.73;20.98
20612;BME280;10465;42.686;23.364;2023-02-21T11:23:29;94991.38;;;22.25;21.67
20612;BME280;10465;42.686;23.364;2023-02-21T11:26:06;94985.91;;;22.14;21.30
20612;BME280;10465;42.686;23.364;2023-02-21T11:28:38;94993.28;;;22.24;21.56
20612;BME280;10465;42.686;23.364;2023-02-21T11:31:10;94974.81;;;22.30;20.99
20612;BME280;10465;42.686;23.364;2023-02-21T11:34:00;94973.19;;;22.14;21.13
20612;BME280;10465;42.686;23.364;2023-02-21T11:36:37;94970.31;;;21.89;21.52
20612;BME280;10465;42.686;23.364;2023-02-21T11:41:46;94975.34;;;22.53;20.90
20612;BME280;10465;42.686;23.364;2023-02-21T11:44:29;94974.28;;;22.79;20.77
20612;BME280;10465;42.686;23.364;2023-02-21T11:50:14;94956.69;;;23.17;20.52
20612;BME280;10465;42.686;23.364;2023-02-21T11:52:50;94955.97;;;23.71;20.21
20612;BME280;10465;42.686;23.364;2023-02-21T11:55:19;94927.78;;;23.72;19.91
20612;BME280;10465;42.686;23.364;2023-02-21T12:06:35;94929.97;;;24.52;19.97
20612;BME280;10465;42.686;23.364;2023-02-21T12:09:27;94924.16;;;24.46;19.83
20612;BME280;10465;42.686;23.364;2023-02-21T12:17:20;94911.81;;;24.38;19.78
20612;BME280;10465;42.686;23.364;2023-02-21T12:25:33;94880.28;;;23.63;20.18
20612;BME280;10465;42.686;23.364;2023-02-21T12:33:51;94884.84;;;22.77;21.59
20612;BME280;10465;42.686;23.364;2023-02-21T12:36:27;94878.63;;;22.62;21.79
20612;BME280;10465;42.686;23.364;2023-02-21T12:41:57;94875.66;;;23.00;21.65
20612;BME280;10465;42.686;23.364;2023-02-21T12:47:18;94867.56;;;23.35;21.04
20612;BME280;10465;42.686;23.364;2023-02-21T12:50:01;94861.78;;;23.26;21.17
20612;BME280;10465;42.686;23.364;2023-02-21T12:52:32;94855.59;;;23.11;21.28
20612;BME280;10465;42.686;23.364;2023-02-21T12:55:06;94860.13;;;22.57;21.61
20612;BME280;10465;42.686;23.364;2023-02-21T13:00:23;94850.22;;;22.97;21.09
20612;BME280;10465;42.686;23.364;2023-02-21T13:02:58;94852.13;;;23.14;21.14
20612;BME280;10465;42.686;23.364;2023-02-21T13:05:53;94855.59;;;23.40;20.91
20612;BME280;10465;42.686;23.364;2023-02-21T13:11:34;94859.47;;;23.42;20.78
20612;BME280;10465;42.686;23.364;2023-02-21T13:14:01;94842.84;;;23.33;20.65
20612;BME280;10465;42.686;23.364;2023-02-21T13:16:31;94853.28;;;23.20;20.89
20612;BME280;10465;42.686;23.364;2023-02-21T13:19:03;94835.16;;;23.21;21.09
20612;BME280;10465;42.686;23.364;2023-02-21T13:24:44;94820.88;;;23.20;21.01
20612;BME280;10465;42.686;23.364;2023-02-21T13:27:40;94840.91;;;23.59;20.71
20612;BME280;10465;42.686;23.364;2023-02-21T13:30:11;94840.91;;;23.73;21.25
20612;BME280;10465;42.686;23.364;2023-02-21T13:32:38;94839.72;;;23.85;20.83
20612;BME280;10465;42.686;23.364;2023-02-21T13:35:07;94836.28;;;23.74;20.92
20612;BME280;10465;42.686;23.364;2023-02-21T13:37:35;94830.91;;;23.70;20.90
20612;BME280;10465;42.686;23.364;2023-02-21T13:42:44;94836.66;;;23.83;20.51
20612;BME280;10465;42.686;23.364;2023-02-21T13:45:28;94812.38;;;23.47;20.33
20612;BME280;10465;42.686;23.364;2023-02-21T13:55:37;94806.63;;;23.34;20.90
20612;BME280;10465;42.686;23.364;2023-02-21T14:08:40;94814.63;;;23.84;20.68
20612;BME280;10465;42.686;23.364;2023-02-21T14:21:39;94798.91;;;23.11;20.47
20612;BME280;10465;42.686;23.364;2023-02-21T14:24:10;94802.72;;;22.71;20.86
20612;BME280;10465;42.686;23.364;2023-02-21T14:26:44;94803.84;;;22.41;20.82
20612;BME280;10465;42.686;23.364;2023-02-21T14:29:27;94800.34;;;22.37;21.07
20612;BME280;10465;42.686;23.364;2023-02-21T14:34:39;94794.09;;;22.15;20.88
20612;BME280;10465;42.686;23.364;2023-02-21T14:37:32;94797.09;;;21.92;21.15
20612;BME280;10465;42.686;23.364;2023-02-21T14:43:04;94799.06;;;22.06;21.48
20612;BME280;10465;42.686;23.364;2023-02-21T14:45:58;94800.72;;;22.29;21.04
20612;BME280;10465;42.686;23.364;2023-02-21T15:02:37;94788.28;;;22.06;21.21
20612;BME280;10465;42.686;23.364;2023-02-21T15:07:58;94782.50;;;22.08;21.38
20612;BME280;10465;42.686;23.364;2023-02-21T15:10:29;94786.34;;;22.03;21.36
20612;BME280;10465;42.686;23.364;2023-02-21T15:13:00;94787.09;;;22.04;21.12
20612;BME280;10465;42.686;23.364;2023-02-21T15:15:37;94791.75;;;22.07;21.19
20612;BME280;10465;42.686;23.364;2023-02-21T15:21:21;94789.75;;;21.89;21.43
20612;BME280;10465;42.686;23.364;2023-02-21T15:23:48;94775.66;;;21.41;21.51
20612;BME280;10465;42.686;23.364;2023-02-21T15:29:06;94789.59;;;20.58;22.56
20612;BME280;10465;42.686;23.364;2023-02-21T15:31:43;94783.66;;;20.41;22.89
20612;BME280;10465;42.686;23.364;2023-02-21T15:34:21;94805.41;;;20.25;23.09
20612;BME280;10465;42.686;23.364;2023-02-21T15:36:53;94805.16;;;20.04;23.34
20612;BME280;10465;42.686;23.364;2023-02-21T15:39:23;94810.19;;;19.75;23.51
20612;BME280;10465;42.686;23.364;2023-02-21T15:41:51;94789.38;;;19.42;23.89
20612;BME280;10465;42.686;23.364;2023-02-21T15:44:35;94816.56;;;19.37;23.87
20612;BME280;10465;42.686;23.364;2023-02-21T15:47:14;94803.47;;;19.09;24.14
20612;BME280;10465;42.686;23.364;2023-02-21T15:49:43;94809.09;;;19.00;24.25
20612;BME280;10465;42.686;23.364;2023-02-21T15:52:39;94809.47;;;18.76;24.41
20612;BME280;10465;42.686;23.364;2023-02-21T15:55:31;94804.13;;;18.57;24.79
20612;BME280;10465;42.686;23.364;2023-02-21T16:00:34;94815.31;;;18.62;25.03